Time;durP1;ratioP1;P1;durP2;ratioP2;P2;SDS_P1;SDS_P2;PMS_P1;PMS_P2;Temp;Humidity;BMP_temperature;BMP_pressure;BME280_temperature;BME280_humidity;BME280_pressure;Samples;Min_cycle;Max_cycle;Signal;HPM_P1;HPM_P2
2023/03/18 00:01:00;;;;;;;8.00;5.38;;;;;;;5.24;54.35;101834.56;5016043;28;20380;-81
2023/03/18 00:03:25;;;;;;;8.13;5.35;;;;;;;5.19;53.92;101834.03;5015091;28;20376;-80
2023/03/18 00:05:52;;;;;;;7.88;5.50;;;;;;;5.16;53.99;101828.97;5014605;28;20383;-80
2023/03/18 00:08:17;;;;;;;11.02;6.50;;;;;;;5.10;54.22;101834.69;5015780;28;20391;-81
2023/03/18 00:10:43;;;;;;;11.68;8.07;;;;;;;4.98;54.89;101831.94;5017886;28;20399;-80
2023/03/18 00:13:09;;;;;;;13.35;9.68;;;;;;;4.93;54.84;101827.94;5016934;28;20996;-80
2023/03/18 00:15:34;;;;;;;12.98;9.88;;;;;;;4.91;55.06;101830.69;5015868;28;20484;-81
2023/03/18 00:18:00;;;;;;;11.60;8.67;;;;;;;4.92;54.63;101821.84;5015545;28;20399;-81
2023/03/18 00:20:37;;;;;;;13.53;8.73;;;;;;;4.96;54.78;101819.84;5015202;28;20376;-81
2023/03/18 00:23:05;;;;;;;11.87;8.43;;;;;;;4.91;54.42;101817.53;5015027;28;20402;-81
2023/03/18 00:25:31;;;;;;;9.98;8.07;;;;;;;4.95;54.42;101820.78;5016488;28;20446;-80
2023/03/18 00:27:57;;;;;;;10.43;7.45;;;;;;;4.95;54.33;101818.16;5016221;28;20384;-80
2023/03/18 00:30:22;;;;;;;11.10;7.15;;;;;;;4.91;54.61;101814.91;5014758;28;20487;-81
2023/03/18 00:32:48;;;;;;;10.88;6.88;;;;;;;4.87;54.46;101823.97;5015903;28;20446;-80
2023/03/18 00:35:14;;;;;;;8.43;6.07;;;;;;;4.74;54.58;101817.88;5016193;28;20773;-79
2023/03/18 00:37:41;;;;;;;9.43;6.20;;;;;;;4.63;55.28;101812.50;5014510;28;20387;-80
2023/03/18 00:40:16;;;;;;;11.32;6.70;;;;;;;4.49;55.36;101809.03;5015109;28;20391;-79
2023/03/18 00:42:46;;;;;;;10.15;6.20;;;;;;;4.31;56.30;101811.09;5015878;28;20392;-80
2023/03/18 00:45:14;;;;;;;9.68;6.30;;;;;;;4.33;56.24;101811.81;5016229;28;20409;-81
2023/03/18 00:47:41;;;;;;;9.85;5.70;;;;;;;4.26;56.07;101807.94;5015939;28;20384;-80
2023/03/18 00:50:08;;;;;;;9.25;5.90;;;;;;;4.16;56.29;101806.84;5016048;28;20455;-80
2023/03/18 00:52:34;;;;;;;8.88;5.82;;;;;;;3.98;57.14;101808.91;5017187;28;20423;-81
2023/03/18 00:55:00;;;;;;;8.07;5.23;;;;;;;3.77;57.19;101809.34;5016493;28;20458;-81
2023/03/18 00:57:28;;;;;;;8.20;5.28;;;;;;;3.49;58.34;101809.44;5016470;28;20395;-81
2023/03/18 00:59:54;;;;;;;8.00;5.03;;;;;;;3.37;58.73;101811.06;5015418;28;20381;-81
2023/03/18 01:02:19;;;;;;;6.67;4.87;;;;;;;3.12;59.24;101811.75;5015585;28;20387;-81
2023/03/18 01:04:45;;;;;;;7.13;4.87;;;;;;;3.03;59.26;101800.03;5016335;28;20399;-81
2023/03/18 01:07:12;;;;;;;7.93;5.05;;;;;;;3.04;59.41;101805.19;5018502;28;20388;-82
2023/03/18 01:09:42;;;;;;;8.40;5.47;;;;;;;3.17;59.17;101814.88;5019583;28;20407;-81
2023/03/18 01:12:09;;;;;;;8.68;5.45;;;;;;;3.31;58.57;101803.56;5015461;28;20459;-80
2023/03/18 01:14:36;;;;;;;8.98;5.60;;;;;;;3.37;58.26;101809.28;5016655;28;20388;-79
2023/03/18 01:17:03;;;;;;;8.35;6.03;;;;;;;3.51;58.00;101807.56;5016462;28;20837;-81
2023/03/18 01:19:29;;;;;;;12.40;8.10;;;;;;;3.57;57.27;101809.81;5015822;28;20483;-80
2023/03/18 01:21:55;;;;;;;14.37;9.33;;;;;;;3.49;57.62;101807.63;5015632;28;20730;-80
2023/03/18 01:24:21;;;;;;;9.88;6.43;;;;;;;3.32;58.28;101818.38;5017595;28;20435;-79
2023/03/18 01:26:47;;;;;;;12.90;7.40;;;;;;;3.35;58.26;101815.53;5016850;28;20434;-80
2023/03/18 01:29:13;;;;;;;8.93;5.50;;;;;;;3.32;58.62;101805.25;5015693;28;20546;-80
2023/03/18 01:31:38;;;;;;;8.47;5.03;;;;;;;3.04;59.01;101806.94;5015787;28;20391;-80
2023/03/18 01:34:04;;;;;;;8.33;5.50;;;;;;;2.97;59.78;101813.50;5014533;28;20388;-81
2023/03/18 01:36:30;;;;;;;8.97;6.17;;;;;;;2.93;59.67;101804.16;5015951;28;20390;-82
2023/03/18 01:38:56;;;;;;;8.33;5.77;;;;;;;3.15;59.12;101807.16;4996017;28;20397;-80
2023/03/18 01:41:24;;;;;;;8.80;5.80;;;;;;;3.20;58.54;101807.69;4995797;28;20473;-81
2023/03/18 01:43:53;;;;;;;8.30;5.13;;;;;;;2.98;59.56;101815.19;4995484;28;20477;-80
2023/03/18 01:46:38;;;;;;;8.13;5.28;;;;;;;2.94;59.78;101811.91;4995751;28;20417;-81
2023/03/18 01:49:33;;;;;;;6.03;4.67;;;;;;;3.14;59.36;101807.25;4995733;28;20535;-81
2023/03/18 01:52:08;;;;;;;7.95;5.53;;;;;;;3.30;58.70;101802.72;4996887;28;20421;-81
2023/03/18 01:54:40;;;;;;;7.55;5.13;;;;;;;3.29;58.93;101805.44;5010479;28;20405;-80
2023/03/18 01:57:06;;;;;;;7.93;5.25;;;;;;;3.47;58.21;101801.66;5010302;28;20390;-81
2023/03/18 01:59:37;;;;;;;9.03;5.20;;;;;;;3.62;57.82;101812.97;4995513;28;20463;-80
2023/03/18 02:02:09;;;;;;;6.97;4.77;;;;;;;3.71;57.72;101816.75;4994687;28;20382;-80
2023/03/18 02:04:44;;;;;;;8.10;5.40;;;;;;;3.60;57.80;101807.81;4995026;28;20385;-81
2023/03/18 02:07:18;;;;;;;8.13;5.95;;;;;;;3.53;57.96;101818.78;4994979;28;20455;-80
2023/03/18 02:09:45;;;;;;;9.02;5.90;;;;;;;3.57;58.33;101818.50;4994812;28;20437;-80
2023/03/18 02:12:13;;;;;;;8.23;5.35;;;;;;;3.71;57.76;101812.38;4994334;28;20409;-81
2023/03/18 02:14:39;;;;;;;8.77;5.85;;;;;;;3.78;57.62;101810.19;4994443;28;20378;-80
2023/03/18 02:17:10;;;;;;;10.73;7.30;;;;;;;3.87;57.41;101809.63;4993402;28;20453;-81
2023/03/18 02:20:06;;;;;;;11.52;7.05;;;;;;;4.02;56.99;101813.03;5009720;28;20739;-81
2023/03/18 02:22:43;;;;;;;11.32;6.80;;;;;;;4.08;56.87;101812.59;4994739;28;20393;-81
2023/03/18 02:25:32;;;;;;;11.20;7.30;;;;;;;4.08;56.60;101817.84;4995734;28;20395;-81
2023/03/18 02:28:05;;;;;;;12.18;8.93;;;;;;;4.15;56.51;101818.31;4995087;28;20413;-81
2023/03/18 02:30:40;;;;;;;11.63;7.60;;;;;;;4.10;57.01;101821.22;4995556;28;20763;-81
2023/03/18 02:33:08;;;;;;;11.23;8.00;;;;;;;4.09;57.28;101814.31;4994282;28;20399;-80
2023/03/18 02:35:34;;;;;;;14.15;9.25;;;;;;;4.08;57.38;101809.16;5009081;28;20394;-80
2023/03/18 02:38:01;;;;;;;12.10;8.13;;;;;;;4.19;56.94;101817.97;4993051;28;20471;-79
2023/03/18 02:40:30;;;;;;;11.82;7.70;;;;;;;4.26;56.41;101817.59;4992714;28;20388;-80
2023/03/18 02:42:56;;;;;;;10.98;7.82;;;;;;;4.30;56.66;101817.28;4991255;28;20394;-79
2023/03/18 02:45:32;;;;;;;13.65;8.25;;;;;;;4.32;56.87;101820.66;5007987;28;20378;-79
2023/03/18 02:48:01;;;;;;;12.13;7.85;;;;;;;4.38;56.43;101822.88;4992556;28;20393;-79
2023/03/18 02:50:26;;;;;;;12.30;8.13;;;;;;;4.43;56.00;101826.97;4994603;28;20421;-80
2023/03/18 02:52:52;;;;;;;11.10;7.40;;;;;;;4.47;56.11;101824.03;4995547;28;20386;-79
2023/03/18 02:55:17;;;;;;;10.63;7.20;;;;;;;4.48;56.33;101819.63;5000310;28;20389;-80
2023/03/18 02:57:43;;;;;;;10.03;7.37;;;;;;;4.53;55.98;101822.78;4999805;28;20392;-80
2023/03/18 03:00:09;;;;;;;10.82;7.50;;;;;;;4.57;55.73;101819.88;5014327;28;20385;-80
2023/03/18 03:02:35;;;;;;;10.13;7.50;;;;;;;4.62;55.45;101832.66;4998804;28;20878;-79
2023/03/18 03:05:01;;;;;;;11.13;7.75;;;;;;;4.52;55.61;101824.56;5003455;28;20374;-81
2023/03/18 03:07:27;;;;;;;10.33;7.73;;;;;;;4.51;55.49;101828.13;5036106;28;20393;-81
2023/03/18 03:09:53;;;;;;;15.38;10.18;;;;;;;4.57;55.48;101834.75;5020026;28;20417;-80
2023/03/18 03:12:18;;;;;;;12.73;8.68;;;;;;;4.59;55.44;101838.13;5017898;28;20481;-80
2023/03/18 03:14:44;;;;;;;30.92;28.20;;;;;;;4.67;55.16;101840.25;5015018;28;20392;-80
2023/03/18 03:17:10;;;;;;;14.02;11.52;;;;;;;4.72;55.06;101828.47;4999393;28;20447;-81
2023/03/18 03:19:35;;;;;;;11.73;8.40;;;;;;;4.69;55.55;101841.81;4999775;28;20874;-80
2023/03/18 03:22:01;;;;;;;25.35;16.13;;;;;;;4.68;55.32;101848.03;4999602;28;20431;-79
2023/03/18 03:24:27;;;;;;;30.70;20.50;;;;;;;4.69;55.61;101844.44;4999557;28;20438;-78
2023/03/18 03:26:52;;;;;;;14.30;10.18;;;;;;;4.67;55.68;101843.72;4999673;28;20534;-79
2023/03/18 03:29:19;;;;;;;25.98;14.93;;;;;;;4.66;55.56;101847.25;4999437;28;20849;-79
2023/03/18 03:31:45;;;;;;;18.92;13.45;;;;;;;4.72;55.72;101848.66;5014284;28;20465;-79
2023/03/18 03:34:10;;;;;;;19.50;11.85;;;;;;;4.73;55.92;101842.44;4998774;28;20393;-79
2023/03/18 03:36:36;;;;;;;16.17;11.17;;;;;;;4.79;55.56;101845.50;4997403;28;20751;-79
2023/03/18 03:39:02;;;;;;;17.58;12.02;;;;;;;4.84;55.32;101844.34;5017763;28;20455;-79
2023/03/18 03:41:28;;;;;;;20.92;13.10;;;;;;;4.73;55.99;101845.06;5018331;28;20384;-80
2023/03/18 03:43:54;;;;;;;21.67;14.10;;;;;;;4.73;56.16;101848.53;5016371;28;20442;-79
2023/03/18 03:46:19;;;;;;;21.38;14.18;;;;;;;4.77;55.59;101836.91;5017912;28;20430;-80
2023/03/18 03:48:46;;;;;;;16.98;12.65;;;;;;;4.84;55.95;101849.59;5017524;28;20384;-79
2023/03/18 03:51:13;;;;;;;17.98;12.25;;;;;;;4.89;55.23;101847.50;5016754;28;20384;-80
2023/03/18 03:53:39;;;;;;;15.25;11.07;;;;;;;4.93;55.11;101847.19;5015641;28;20395;-81
2023/03/18 03:56:08;;;;;;;18.73;12.45;;;;;;;4.97;55.49;101856.53;5016650;28;20467;-80
2023/03/18 03:58:34;;;;;;;17.20;12.50;;;;;;;4.98;54.96;101852.13;5017317;28;20395;-81
2023/03/18 04:00:59;;;;;;;20.13;11.43;;;;;;;4.97;54.85;101853.09;5017431;28;20384;-82
2023/03/18 04:03:25;;;;;;;14.95;10.30;;;;;;;4.99;54.98;101848.56;5017384;28;20395;-81
2023/03/18 04:05:51;;;;;;;14.63;10.02;;;;;;;4.96;55.35;101851.38;5014333;28;20479;-81
2023/03/18 04:08:16;;;;;;;15.25;11.13;;;;;;;4.86;55.34;101847.69;5013794;28;20472;-79
2023/03/18 04:10:42;;;;;;;16.83;11.57;;;;;;;4.77;55.81;101854.41;5014619;28;20443;-79
2023/03/18 04:13:09;;;;;;;18.15;11.00;;;;;;;4.71;55.62;101852.22;5014128;28;20415;-79
2023/03/18 04:15:34;;;;;;;16.23;10.40;;;;;;;4.60;56.22;101859.03;5013582;28;20437;-80
2023/03/18 04:18:05;;;;;;;14.80;10.27;;;;;;;4.50;56.61;101847.47;5014843;28;20396;-81
2023/03/18 04:20:36;;;;;;;14.73;11.27;;;;;;;4.48;56.83;101849.34;5013246;28;20465;-80
2023/03/18 04:23:02;;;;;;;16.25;11.45;;;;;;;4.41;57.05;101855.94;5014567;28;20395;-80
2023/03/18 04:25:28;;;;;;;15.73;10.68;;;;;;;4.28;57.45;101852.44;5014294;28;20465;-79
2023/03/18 04:27:54;;;;;;;16.10;11.23;;;;;;;4.37;57.08;101849.22;5013597;28;20407;-80
2023/03/18 04:30:22;;;;;;;13.03;10.53;;;;;;;4.43;57.18;101853.22;5012254;28;20772;-81
2023/03/18 04:32:49;;;;;;;13.87;9.40;;;;;;;4.38;56.99;101856.16;5013747;28;20456;-79
2023/03/18 04:35:15;;;;;;;12.88;9.23;;;;;;;4.30;57.57;101861.91;5013384;28;20392;-79
2023/03/18 04:37:41;;;;;;;13.73;9.35;;;;;;;4.14;57.69;101866.47;5010232;28;20385;-80
2023/03/18 04:40:08;;;;;;;14.48;9.43;;;;;;;4.10;58.10;101867.63;5008528;28;20407;-81
2023/03/18 04:42:34;;;;;;;14.05;9.70;;;;;;;4.13;57.89;101863.00;5013888;28;20384;-81
2023/03/18 04:45:00;;;;;;;14.38;9.88;;;;;;;4.13;58.06;101868.25;5014423;28;20427;-80
2023/03/18 04:47:27;;;;;;;14.68;9.60;;;;;;;4.10;58.12;101862.38;5014211;28;20446;-80
2023/03/18 04:49:53;;;;;;;14.23;9.68;;;;;;;4.13;58.04;101870.06;5014025;28;20408;-80
2023/03/18 04:52:19;;;;;;;12.20;8.97;;;;;;;4.10;57.92;101876.31;5013818;28;20400;-80
2023/03/18 04:54:44;;;;;;;12.10;8.83;;;;;;;4.06;57.94;101874.84;5017760;28;20489;-79
2023/03/18 04:57:10;;;;;;;11.70;8.17;;;;;;;3.92;58.59;101880.97;5029834;28;20546;-80
2023/03/18 04:59:35;;;;;;;15.53;9.60;;;;;;;4.01;58.45;101883.00;5029668;28;20426;-80
2023/03/18 05:02:01;;;;;;;13.00;8.93;;;;;;;4.05;58.09;101888.06;5013262;28;20757;-80
2023/03/18 05:04:27;;;;;;;13.43;9.52;;;;;;;4.10;58.09;101891.22;5013457;28;20462;-80
2023/03/18 05:06:52;;;;;;;16.67;10.73;;;;;;;4.06;58.13;101890.59;5012823;28;20387;-80
2023/03/18 05:09:18;;;;;;;16.52;10.70;;;;;;;4.02;58.43;101889.94;5013431;28;20420;-80
2023/03/18 05:11:44;;;;;;;13.15;10.05;;;;;;;4.10;58.85;101897.31;5013230;28;20400;-81
2023/03/18 05:14:09;;;;;;;19.25;11.57;;;;;;;4.17;58.49;101900.41;5013293;28;20380;-82
2023/03/18 05:16:35;;;;;;;15.70;10.95;;;;;;;4.14;59.02;101905.81;5012218;28;20880;-80
2023/03/18 05:19:03;;;;;;;19.58;11.85;;;;;;;4.19;58.60;101914.25;5011939;28;20478;-80
2023/03/18 05:21:28;;;;;;;20.25;12.80;;;;;;;4.30;58.63;101916.19;5014126;28;20471;-79
2023/03/18 05:23:55;;;;;;;19.98;13.65;;;;;;;4.43;58.51;101914.47;5015166;28;20388;-81
2023/03/18 05:26:20;;;;;;;17.88;11.93;;;;;;;4.51;58.38;101916.59;5028493;28;20403;-81
2023/03/18 05:28:46;;;;;;;18.98;13.77;;;;;;;4.60;58.61;101923.84;5012988;28;20392;-79
2023/03/18 05:31:12;;;;;;;18.08;12.70;;;;;;;4.62;59.09;101908.81;5013200;28;20388;-81
2023/03/18 05:33:37;;;;;;;17.73;13.57;;;;;;;4.56;58.73;101911.88;5015816;28;20785;-81
2023/03/18 05:36:03;;;;;;;20.40;15.43;;;;;;;4.61;59.14;101912.41;5013396;28;20458;-80
2023/03/18 05:38:28;;;;;;;20.75;14.32;;;;;;;4.69;59.28;101917.97;5013114;28;20380;-81
2023/03/18 05:40:54;;;;;;;21.48;14.50;;;;;;;4.62;59.33;101919.34;5028092;28;20383;-81
2023/03/18 05:43:21;;;;;;;20.80;15.45;;;;;;;4.59;59.55;101917.75;5011914;28;20384;-81
2023/03/18 05:45:47;;;;;;;24.60;16.33;;;;;;;4.68;59.51;101926.81;5013221;28;20432;-82
2023/03/18 05:48:13;;;;;;;24.55;17.48;;;;;;;4.72;59.55;101924.84;5011995;28;20458;-81
2023/03/18 05:50:40;;;;;;;23.35;16.23;;;;;;;4.76;60.07;101928.94;5012301;28;20447;-80
2023/03/18 05:53:07;;;;;;;23.83;16.85;;;;;;;4.86;60.04;101932.63;5013423;28;20450;-80
2023/03/18 05:55:33;;;;;;;23.45;15.57;;;;;;;4.93;60.23;101933.03;5012734;28;20388;-80
2023/03/18 05:57:59;;;;;;;21.17;14.90;;;;;;;5.03;60.07;101936.75;5013776;28;20703;-81
2023/03/18 06:00:27;;;;;;;22.50;15.17;;;;;;;5.14;59.84;101942.09;5012800;28;20407;-79
2023/03/18 06:02:53;;;;;;;18.38;13.50;;;;;;;5.28;59.72;101943.81;5011066;28;20466;-80
2023/03/18 06:05:20;;;;;;;20.13;12.80;;;;;;;5.45;59.44;101934.75;5012055;28;20738;-81
2023/03/18 06:07:46;;;;;;;16.87;12.60;;;;;;;5.60;59.53;101940.75;5012651;28;20388;-81
2023/03/18 06:10:12;;;;;;;16.98;13.18;;;;;;;5.66;59.08;101934.22;5012070;28;20415;-83
2023/03/18 06:12:38;;;;;;;17.42;12.88;;;;;;;5.56;59.51;101931.38;5012649;28;20920;-80
2023/03/18 06:15:06;;;;;;;16.65;11.93;;;;;;;5.54;59.38;101941.16;5012489;28;20777;-81
2023/03/18 06:17:32;;;;;;;16.25;12.25;;;;;;;5.59;59.43;101938.22;5012384;28;20895;-81
2023/03/18 06:19:58;;;;;;;17.85;12.60;;;;;;;5.74;59.60;101940.63;5015143;28;20389;-80
2023/03/18 06:22:25;;;;;;;29.00;18.20;;;;;;;5.84;59.51;101939.97;5017752;28;20473;-83
2023/03/18 06:24:50;;;;;;;77.38;37.72;;;;;;;5.98;58.85;101939.00;5011518;28;20380;-81
2023/03/18 06:27:16;;;;;;;28.25;16.58;;;;;;;5.96;58.81;101943.53;5012739;28;20395;-82
2023/03/18 06:29:42;;;;;;;17.45;13.10;;;;;;;5.82;59.27;101960.28;5010449;28;20404;-81
2023/03/18 06:32:08;;;;;;;17.70;13.43;;;;;;;6.02;58.96;101956.28;5012304;28;20415;-83
2023/03/18 06:34:35;;;;;;;18.27;12.68;;;;;;;6.14;58.13;101950.13;5011386;28;20385;-84
2023/03/18 06:37:01;;;;;;;17.42;12.38;;;;;;;6.21;58.31;101959.28;5015464;28;20721;-82
2023/03/18 06:39:27;;;;;;;17.15;12.45;;;;;;;6.23;58.13;101957.38;5018431;28;20742;-83
2023/03/18 06:41:53;;;;;;;17.30;12.85;;;;;;;6.38;57.95;101954.56;5014406;28;20399;-81
2023/03/18 06:44:23;;;;;;;16.67;12.00;;;;;;;6.47;58.01;101959.16;5012807;28;20477;-78
2023/03/18 06:46:48;;;;;;;14.50;11.50;;;;;;;6.65;57.61;101951.69;5012156;28;20396;-81
2023/03/18 06:49:16;;;;;;;15.90;11.90;;;;;;;6.62;57.29;101944.00;5017984;28;20399;-82
2023/03/18 06:51:42;;;;;;;16.88;12.18;;;;;;;6.76;57.28;101949.09;5046979;28;20406;-79
2023/03/18 06:54:08;;;;;;;15.63;11.77;;;;;;;6.78;56.61;101954.25;5039679;28;20380;-82
2023/03/18 06:56:37;;;;;;;15.27;11.50;;;;;;;6.68;56.96;101952.31;5041573;28;20399;-81
2023/03/18 06:59:04;;;;;;;16.40;12.35;;;;;;;6.85;56.70;101961.56;5014389;28;20455;-81
2023/03/18 07:01:31;;;;;;;16.73;11.70;;;;;;;7.00;56.28;101959.56;5021149;28;20459;-81
2023/03/18 07:03:59;;;;;;;17.27;12.73;;;;;;;7.20;56.18;101954.59;5014248;28;20394;-81
2023/03/18 07:06:25;;;;;;;17.63;12.10;;;;;;;7.13;55.79;101967.44;5012773;28;20391;-82
2023/03/18 07:08:51;;;;;;;15.25;11.75;;;;;;;7.01;56.29;101963.91;5012706;28;20383;-81
2023/03/18 07:11:17;;;;;;;15.80;11.85;;;;;;;7.10;56.11;101974.72;5019296;28;20460;-80
2023/03/18 07:13:43;;;;;;;14.35;11.30;;;;;;;7.10;56.18;101982.63;5021851;28;20490;-81
2023/03/18 07:16:09;;;;;;;15.05;11.52;;;;;;;6.92;55.99;101969.88;5017527;28;20940;-80
2023/03/18 07:18:36;;;;;;;13.82;10.93;;;;;;;7.12;56.22;101965.72;5026358;28;20392;-81
2023/03/18 07:21:02;;;;;;;15.63;11.15;;;;;;;7.17;55.95;101986.50;5017063;28;20384;-80
2023/03/18 07:23:27;;;;;;;15.00;11.18;;;;;;;7.23;56.00;101988.66;5022455;28;20386;-79
2023/03/18 07:25:53;;;;;;;22.30;14.77;;;;;;;7.24;55.91;101983.25;5023081;28;20409;-80
2023/03/18 07:28:19;;;;;;;15.57;11.90;;;;;;;7.31;55.89;101991.56;5017651;28;20423;-81
2023/03/18 07:30:45;;;;;;;15.35;11.90;;;;;;;7.52;55.45;101996.13;5012153;28;20431;-80
2023/03/18 07:33:11;;;;;;;17.95;11.82;;;;;;;7.50;55.70;101992.78;5021243;28;20472;-82
2023/03/18 07:35:39;;;;;;;17.13;11.00;;;;;;;7.43;54.78;101992.41;5020518;28;20396;-82
2023/03/18 07:38:06;;;;;;;14.65;11.27;;;;;;;7.29;54.83;101990.81;5013137;28;20400;-80
2023/03/18 07:40:32;;;;;;;14.20;11.15;;;;;;;7.31;54.63;101988.06;5020635;28;20440;-82
2023/03/18 07:42:57;;;;;;;16.50;11.53;;;;;;;7.23;54.53;101996.56;5023889;28;20383;-82
2023/03/18 07:45:23;;;;;;;16.45;10.73;;;;;;;7.25;54.83;101994.66;5017283;28;20419;-81
2023/03/18 07:47:48;;;;;;;16.00;11.60;;;;;;;7.45;54.84;101993.13;5015500;28;20403;-81
2023/03/18 07:50:15;;;;;;;14.70;11.10;;;;;;;7.55;54.26;102009.09;5014905;28;20404;-80
2023/03/18 07:52:40;;;;;;;17.40;11.18;;;;;;;7.38;54.13;102000.69;5015501;28;20395;-80
2023/03/18 07:55:07;;;;;;;14.13;11.40;;;;;;;7.75;54.07;102008.38;5015631;28;20457;-81
2023/03/18 07:57:34;;;;;;;16.98;11.30;;;;;;;8.01;53.54;102006.34;5005862;28;20388;-84
2023/03/18 08:00:00;;;;;;;15.98;12.07;;;;;;;8.12;53.24;102005.50;5017508;28;20450;-82
2023/03/18 08:02:26;;;;;;;16.88;11.80;;;;;;;8.19;53.45;102005.81;5019394;28;20873;-82
2023/03/18 08:04:53;;;;;;;19.13;13.18;;;;;;;8.41;53.49;102015.53;5016236;28;20483;-83
2023/03/18 08:07:19;;;;;;;19.02;12.73;;;;;;;8.31;53.40;102009.31;5012557;28;20463;-81
2023/03/18 08:09:44;;;;;;;17.90;13.67;;;;;;;8.49;53.42;102014.94;4996497;28;20485;-82
2023/03/18 08:12:09;;;;;;;19.53;13.63;;;;;;;8.54;53.90;102010.13;5014700;28;20419;-81
2023/03/18 08:14:35;;;;;;;27.60;15.40;;;;;;;8.56;53.86;102013.47;5014238;28;20383;-80
2023/03/18 08:17:02;;;;;;;18.90;14.27;;;;;;;8.30;54.74;102005.84;4997074;28;20376;-82
2023/03/18 08:19:28;;;;;;;18.45;13.73;;;;;;;8.22;55.22;102009.06;5028443;28;20384;-81
2023/03/18 08:21:54;;;;;;;20.13;14.57;;;;;;;8.31;55.29;102010.13;5015020;28;20454;-80
2023/03/18 08:24:20;;;;;;;20.05;14.10;;;;;;;8.37;55.03;102000.88;5016625;28;20419;-82
2023/03/18 08:26:46;;;;;;;16.92;13.48;;;;;;;8.50;54.75;102013.97;5014583;28;20388;-82
2023/03/18 08:29:11;;;;;;;20.27;14.40;;;;;;;8.38;55.25;102007.84;5013171;28;20415;-81
2023/03/18 08:31:37;;;;;;;18.05;13.38;;;;;;;8.53;55.25;102019.84;5014845;28;20391;-81
2023/03/18 08:34:03;;;;;;;20.33;14.75;;;;;;;8.54;55.25;102016.25;5014040;28;20754;-81
2023/03/18 08:36:28;;;;;;;22.10;13.95;;;;;;;8.71;55.01;102009.56;5014750;28;20396;-81
2023/03/18 08:38:55;;;;;;;17.67;13.23;;;;;;;8.76;55.25;102017.97;5015358;28;20399;-83
2023/03/18 08:41:21;;;;;;;19.55;13.52;;;;;;;8.99;54.57;102012.59;5014229;28;20388;-82
2023/03/18 08:43:46;;;;;;;17.13;12.48;;;;;;;9.04;54.65;102009.53;5013689;28;20397;-82
2023/03/18 08:46:12;;;;;;;20.27;13.40;;;;;;;8.86;55.04;102018.06;5014001;28;20423;-81
2023/03/18 08:48:37;;;;;;;19.15;14.13;;;;;;;9.06;55.42;102021.69;5015235;28;20426;-80
2023/03/18 08:51:07;;;;;;;21.50;13.00;;;;;;;9.16;55.66;102016.47;5013160;28;20419;-80
2023/03/18 08:53:32;;;;;;;18.98;13.55;;;;;;;9.34;54.88;102016.72;5014604;28;20471;-81
2023/03/18 08:55:58;;;;;;;18.65;12.75;;;;;;;9.44;55.05;102022.09;5014187;28;20467;-81
2023/03/18 08:58:23;;;;;;;15.73;11.40;;;;;;;9.56;54.23;102019.22;5013821;28;20388;-81
2023/03/18 09:00:49;;;;;;;10.90;8.90;;;;;;;9.46;53.87;102012.22;5013120;28;20391;-80
2023/03/18 09:03:15;;;;;;;12.05;8.82;;;;;;;9.67;53.40;102010.38;5014868;28;20407;-80
2023/03/18 09:05:40;;;;;;;11.05;7.40;;;;;;;9.75;52.04;102017.66;4996929;28;20443;-82
2023/03/18 09:08:06;;;;;;;8.43;6.73;;;;;;;9.75;50.33;102023.78;5013699;28;20443;-83
2023/03/18 09:10:32;;;;;;;9.73;6.97;;;;;;;9.46;50.58;102017.50;5012803;28;20415;-79
2023/03/18 09:12:59;;;;;;;11.07;7.20;;;;;;;9.61;50.65;102010.88;5011400;28;20451;-80
2023/03/18 09:15:26;;;;;;;10.43;7.40;;;;;;;9.77;50.70;102019.19;5011624;28;20857;-79
2023/03/18 09:17:52;;;;;;;10.40;7.45;;;;;;;9.92;50.11;102016.16;5013450;28;20395;-80
2023/03/18 09:20:18;;;;;;;9.45;7.20;;;;;;;10.05;49.99;102016.78;5012700;28;20388;-81
2023/03/18 09:22:45;;;;;;;9.48;6.57;;;;;;;9.88;49.12;102028.00;5013617;28;20426;-80
2023/03/18 09:25:10;;;;;;;10.45;7.25;;;;;;;10.13;49.38;102021.41;5014026;28;20410;-79
2023/03/18 09:27:36;;;;;;;10.50;6.95;;;;;;;10.22;48.40;102025.91;5013702;28;20396;-81
2023/03/18 09:30:02;;;;;;;10.25;6.95;;;;;;;10.12;48.70;102019.75;5013741;28;20416;-81
2023/03/18 09:32:28;;;;;;;10.82;6.88;;;;;;;10.13;49.00;102029.38;5015875;28;20778;-80
2023/03/18 09:34:54;;;;;;;9.45;7.65;;;;;;;10.42;48.58;102037.41;5015835;28;20484;-81
2023/03/18 09:37:20;;;;;;;9.82;7.05;;;;;;;10.68;48.01;102021.00;5013190;28;20388;-82
2023/03/18 09:39:46;;;;;;;9.00;7.30;;;;;;;10.91;47.38;102021.53;5013139;28;20380;-82
2023/03/18 09:42:31;;;;;;;9.40;6.78;;;;;;;11.10;47.17;102016.22;5014208;28;20935;-80
2023/03/18 09:45:01;;;;;;;10.13;6.93;;;;;;;11.25;47.00;102019.31;5012494;28;20404;-80
2023/03/18 09:48:15;;;;;;;10.70;6.25;;;;;;;11.27;45.64;102013.84;5013495;28;20404;-79
2023/03/18 09:51:13;;;;;;;8.55;5.93;;;;;;;10.88;44.58;102014.72;5011424;28;20443;-79
2023/03/18 09:53:50;;;;;;;7.95;5.90;;;;;;;10.90;44.23;102019.88;5013247;28;20877;-80
2023/03/18 09:56:29;;;;;;;7.18;5.22;;;;;;;11.08;43.83;102020.84;5012590;28;20908;-80
2023/03/18 09:58:59;;;;;;;8.63;6.07;;;;;;;11.41;42.88;102016.03;5012834;28;20488;-79
2023/03/18 10:01:27;;;;;;;10.05;5.63;;;;;;;11.42;42.88;102012.41;5012070;28;20460;-80
2023/03/18 10:04:10;;;;;;;8.65;5.75;;;;;;;11.41;42.56;102013.38;5011070;28;20438;-80
2023/03/18 10:06:37;;;;;;;8.40;5.35;;;;;;;11.34;42.03;102004.31;5013438;28;20404;-81
2023/03/18 10:09:27;;;;;;;5.68;4.65;;;;;;;11.51;42.21;102004.59;5014090;28;20396;-82
2023/03/18 10:12:02;;;;;;;6.47;4.83;;;;;;;11.43;41.30;101995.53;5014441;28;20775;-80
2023/03/18 10:15:03;;;;;;;8.38;4.88;;;;;;;11.51;41.87;102009.91;5032544;28;20475;-79
2023/03/18 10:18:00;;;;;;;8.65;5.40;;;;;;;11.56;41.47;101997.84;5018044;28;20507;-79
2023/03/18 10:20:50;;;;;;;8.00;5.30;;;;;;;11.47;40.92;101994.25;5012230;28;20384;-80
2023/03/18 10:23:35;;;;;;;10.82;5.32;;;;;;;11.63;41.56;102000.75;5008477;28;20448;-79
2023/03/18 10:26:11;;;;;;;7.28;5.00;;;;;;;11.85;40.79;101995.06;5031981;28;20379;-79
2023/03/18 10:28:58;;;;;;;7.03;4.43;;;;;;;11.91;39.31;102001.66;5034711;28;20394;-79
2023/03/18 10:31:51;;;;;;;7.80;4.50;;;;;;;11.56;39.41;101989.88;5046403;28;20391;-79
2023/03/18 10:34:22;;;;;;;6.25;5.07;;;;;;;11.27;40.03;101981.97;5030448;28;20399;-80
2023/03/18 10:36:58;;;;;;;6.93;4.80;;;;;;;11.55;40.13;101984.72;5025412;28;20383;-80
2023/03/18 10:39:26;;;;;;;7.72;4.80;;;;;;;11.50;40.26;101981.66;5015413;28;20461;-81
2023/03/18 10:41:53;;;;;;;7.15;4.88;;;;;;;11.65;39.33;101983.69;5020578;28;20425;-81
2023/03/18 10:44:25;;;;;;;7.82;4.38;;;;;;;11.76;39.33;101985.34;5014886;28;20800;-79
2023/03/18 10:46:58;;;;;;;5.20;3.92;;;;;;;12.02;38.26;101977.53;5025499;28;20380;-80
2023/03/18 10:49:30;;;;;;;7.22;4.00;;;;;;;11.88;37.13;101985.13;5014699;28;20433;-79
2023/03/18 10:52:35;;;;;;;6.38;3.85;;;;;;;11.82;37.36;101971.44;5031597;28;20386;-79
2023/03/18 10:55:01;;;;;;;7.55;3.88;;;;;;;11.93;37.68;101966.97;5026552;28;20372;-80
2023/03/18 10:57:26;;;;;;;6.93;4.05;;;;;;;12.05;37.74;101955.16;5020467;28;20419;-79
2023/03/18 10:59:52;;;;;;;8.13;3.83;;;;;;;12.06;37.20;101972.75;5011134;28;20918;-80
2023/03/18 11:02:25;;;;;;;6.30;3.60;;;;;;;11.63;36.69;101964.41;5017427;28;20424;-80
2023/03/18 11:04:50;;;;;;;6.63;3.70;;;;;;;11.62;37.42;101959.25;5017621;28;20396;-78
2023/03/18 11:07:25;;;;;;;4.93;3.20;;;;;;;11.74;37.35;101952.78;5011460;28;20398;-79
2023/03/18 11:09:52;;;;;;;4.20;2.85;;;;;;;11.75;36.63;101949.09;5017083;28;20405;-82
2023/03/18 11:12:24;;;;;;;4.88;2.72;;;;;;;11.68;36.17;101953.34;5012265;28;20411;-78
2023/03/18 11:14:50;;;;;;;6.17;3.30;;;;;;;11.81;36.74;101940.56;5018478;28;20434;-78
2023/03/18 11:17:22;;;;;;;4.33;3.03;;;;;;;12.13;36.16;101935.78;5016529;28;20440;-79
2023/03/18 11:19:59;;;;;;;5.25;3.38;;;;;;;12.34;36.42;101941.66;5024604;28;20943;-77
2023/03/18 11:22:26;;;;;;;7.63;3.95;;;;;;;12.29;35.73;101933.28;5016859;28;20392;-79
2023/03/18 11:25:04;;;;;;;5.65;3.75;;;;;;;12.37;35.80;101941.34;5014970;28;20388;-79
2023/03/18 11:27:57;;;;;;;5.55;3.60;;;;;;;12.20;35.30;101939.50;5018822;28;20388;-78